Swayzee, IN (46986)

3:53 PM EDT on June 30, 2015 (GMT -0400)
Middlesworth | | Change Station
CLOSE
Current Station
Personal Weather Station
Location: Marion, IN
Elevation: 856 ft
Nearby Weather Stations

Elev 856 ft 40.52 °N, 85.76 °W | Updated 10 seconds ago

Partly Cloudy
Partly Cloudy
78.3 °F
Feels Like 80 °F
N
11.6
Wind Variable Wind from SE
Gusts 16.0 mph

Today
High -- | Low -- °F
--% Chance of Precip.
Yesterday
High -- | Low -- °F
Precip. -- in
6:15 AM 9:17 PM
Waxing Gibbous, 98% visible
Pressure 29.81 in
Visibility 10.0 miles
Clouds Scattered Clouds 4000 ft
Heat Index 80 °F
Dew Point 65 °F
Humidity 63%
Rainfall in
Snow Depth Not available.
UV 8 out of 12
Pollen 1.70 out of 12
Air Quality Not available.
Flu Activity No Activity
METAR KMZZ 301935Z AUTO 30013G17KT 10SM SCT040 25/16 A2981 RMK AO2 T02490159

More Conditions Fewer Conditions

Pressure 29.81 in
Visibility 10.0 miles
Clouds Scattered Clouds 4000 ft
Heat Index 80 °F
Dew Point 65 °F
Humidity 63%
Rainfall in
Snow Depth Not available.
UV 8 out of 12
Pollen 1.70 out of 12
Air Quality Not available.
Flu Activity No Activity
METAR KMZZ 301935Z AUTO 30013G17KT 10SM SCT040 25/16 A2981 RMK AO2 T02490159

More Conditions Fewer Conditions

10-Day Weather Forecast

×

Almanac

Astronomy

Jun. 30, 2015 Rise Set
Actual Time
Civil Twilight
Nautical Twilight
Astronomical Twilight
Moon
Length of Visible Light
Length of Day
Tomorrow will be .
, % of the Moon is Illuminated

Today's Extremes

State Highs State Lows

Community

WunderPhotos

Upload Photos

1,834,067 photos uploaded!

WunderBlogs® & News

Nearby

Air Quality

  Air Quality AQ Index Pollutant
Not available.

Snow Depth

Station Depth Elevation

Earthquake Activity

City Distance Mag. Time & Date
Minimum magnitude displayed is 2.5.

Coastal Water Temperatures

Place Temperature

Stations

Nearby Weather Stations

Station Location Temp. Windchill Dew Point Humidity Wind Precip. Elev Updated Type